sensor_id;sensor_type;location;lat;lon;timestamp;pressure;altitude;pressure_sealevel;temperature;humidity
70314;BME280;57725;47.526;18.986;2022-10-30T00:01:00;100558.88;;;13.91;93.45
70314;BME280;57725;47.526;18.986;2022-10-30T00:03:30;100552.75;;;13.91;93.40
70314;BME280;57725;47.526;18.986;2022-10-30T00:05:55;100566.69;;;13.93;93.37
70314;BME280;57725;47.526;18.986;2022-10-30T00:08:21;100557.09;;;13.92;93.46
70314;BME280;57725;47.526;18.986;2022-10-30T00:10:50;100557.09;;;13.92;93.54
70314;BME280;57725;47.526;18.986;2022-10-30T00:13:17;100551.00;;;13.91;93.40
70314;BME280;57725;47.526;18.986;2022-10-30T00:15:51;100556.25;;;13.91;93.63
70314;BME280;57725;47.526;18.986;2022-10-30T00:18:18;100557.09;;;13.92;93.36
70314;BME280;57725;47.526;18.986;2022-10-30T00:20:46;100547.50;;;13.91;93.54
70314;BME280;57725;47.526;18.986;2022-10-30T00:23:18;100549.28;;;13.90;93.57
70314;BME280;57725;47.526;18.986;2022-10-30T00:25:47;100555.38;;;13.91;93.37
70314;BME280;57725;47.526;18.986;2022-10-30T00:28:12;100544.88;;;13.91;93.58
70314;BME280;57725;47.526;18.986;2022-10-30T00:30:37;100549.28;;;13.90;93.40
70314;BME280;57725;47.526;18.986;2022-10-30T00:33:03;100543.97;;;13.92;93.66
70314;BME280;57725;47.526;18.986;2022-10-30T00:35:31;100544.88;;;13.91;93.37
70314;BME280;57725;47.526;18.986;2022-10-30T00:37:59;100544.03;;;13.90;93.54
70314;BME280;57725;47.526;18.986;2022-10-30T00:40:24;100544.88;;;13.91;93.64
70314;BME280;57725;47.526;18.986;2022-10-30T00:42:49;100538.75;;;13.90;93.38
70314;BME280;57725;47.526;18.986;2022-10-30T00:45:18;100536.13;;;13.90;93.55
70314;BME280;57725;47.526;18.986;2022-10-30T00:47:54;100537.91;;;13.90;93.47
70314;BME280;57725;47.526;18.986;2022-10-30T00:52:53;100540.53;;;13.90;93.53
70314;BME280;57725;47.526;18.986;2022-10-30T00:55:25;100548.44;;;13.90;93.60
70314;BME280;57725;47.526;18.986;2022-10-30T00:57:53;100545.78;;;13.90;93.33
70314;BME280;57725;47.526;18.986;2022-10-30T01:00:22;100540.53;;;13.90;93.44
70314;BME280;57725;47.526;18.986;2022-10-30T01:02:49;100543.16;;;13.90;93.62
70314;BME280;57725;47.526;18.986;2022-10-30T01:05:17;100528.31;;;13.89;93.49
70314;BME280;57725;47.526;18.986;2022-10-30T01:07:44;100527.41;;;13.90;93.48
70314;BME280;57725;47.526;18.986;2022-10-30T01:10:10;100517.81;;;13.89;93.43
70314;BME280;57725;47.526;18.986;2022-10-30T01:12:41;100510.78;;;13.89;93.61
70314;BME280;57725;47.526;18.986;2022-10-30T01:15:10;100516.03;;;13.89;93.61
70314;BME280;57725;47.526;18.986;2022-10-30T01:34:32;100490.72;;;13.87;93.54
70314;BME280;57725;47.526;18.986;2022-10-30T01:37:06;100493.38;;;13.87;93.40
70314;BME280;57725;47.526;18.986;2022-10-30T01:39:40;100493.28;;;13.88;93.60
70314;BME280;57725;47.526;18.986;2022-10-30T01:45:12;100509.13;;;13.87;93.53
70314;BME280;57725;47.526;18.986;2022-10-30T01:50:22;100517.94;;;13.86;93.39
70314;BME280;57725;47.526;18.986;2022-10-30T01:53:11;100520.50;;;13.87;93.59
70314;BME280;57725;47.526;18.986;2022-10-30T01:55:55;100511.75;;;13.87;93.49
70314;BME280;57725;47.526;18.986;2022-10-30T01:58:28;100517.94;;;13.86;93.62
70314;BME280;57725;47.526;18.986;2022-10-30T02:00:57;100516.09;;;13.88;93.45
70314;BME280;57725;47.526;18.986;2022-10-30T02:03:26;100510.91;;;13.86;93.45
70314;BME280;57725;47.526;18.986;2022-10-30T02:05:52;100514.38;;;13.87;93.74
70314;BME280;57725;47.526;18.986;2022-10-30T02:08:21;100513.53;;;13.86;93.46
70314;BME280;57725;47.526;18.986;2022-10-30T02:10:50;100508.28;;;13.86;93.40
70314;BME280;57725;47.526;18.986;2022-10-30T02:13:16;100510.06;;;13.86;93.58
70314;BME280;57725;47.526;18.986;2022-10-30T02:15:42;100502.16;;;13.86;93.56
70314;BME280;57725;47.526;18.986;2022-10-30T02:18:08;100520.56;;;13.86;93.65
70314;BME280;57725;47.526;18.986;2022-10-30T02:20:36;100508.34;;;13.85;93.46
70314;BME280;57725;47.526;18.986;2022-10-30T02:23:02;100512.69;;;13.86;93.56
70314;BME280;57725;47.526;18.986;2022-10-30T02:25:30;100512.69;;;13.86;93.65
70314;BME280;57725;47.526;18.986;2022-10-30T02:27:58;100507.44;;;13.86;93.42
70314;BME280;57725;47.526;18.986;2022-10-30T02:30:24;100502.28;;;13.84;93.59
70314;BME280;57725;47.526;18.986;2022-10-30T02:32:49;100506.56;;;13.85;93.44
70314;BME280;57725;47.526;18.986;2022-10-30T02:35:17;100495.22;;;13.85;93.44
70314;BME280;57725;47.526;18.986;2022-10-30T02:37:46;100504.78;;;13.86;93.57
70314;BME280;57725;47.526;18.986;2022-10-30T02:40:12;100497.84;;;13.85;93.54
70314;BME280;57725;47.526;18.986;2022-10-30T02:42:37;100489.94;;;13.85;93.54
70314;BME280;57725;47.526;18.986;2022-10-30T02:45:05;100484.69;;;13.85;93.41
70314;BME280;57725;47.526;18.986;2022-10-30T02:47:33;100493.44;;;13.85;93.45
70314;BME280;57725;47.526;18.986;2022-10-30T02:50:00;100497.84;;;13.85;93.59
70314;BME280;57725;47.526;18.986;2022-10-30T02:52:27;100498.78;;;13.84;93.55
70314;BME280;57725;47.526;18.986;2022-10-30T02:54:53;100502.28;;;13.84;93.61
70314;BME280;57725;47.526;18.986;2022-10-30T02:57:18;100504.91;;;13.84;93.55
70314;BME280;57725;47.526;18.986;2022-10-30T02:59:46;100501.31;;;13.85;93.52
70314;BME280;57725;47.526;18.986;2022-10-30T03:02:11;100506.66;;;13.84;93.48
70314;BME280;57725;47.526;18.986;2022-10-30T03:04:39;100504.03;;;13.84;93.67
70314;BME280;57725;47.526;18.986;2022-10-30T03:07:04;100504.91;;;13.84;93.55
70314;BME280;57725;47.526;18.986;2022-10-30T03:09:34;100504.03;;;13.84;93.37
70314;BME280;57725;47.526;18.986;2022-10-30T03:11:59;100510.16;;;13.84;93.64
70314;BME280;57725;47.526;18.986;2022-10-30T03:14:24;100498.78;;;13.84;93.31
70314;BME280;57725;47.526;18.986;2022-10-30T03:16:50;100502.28;;;13.84;93.67
70314;BME280;57725;47.526;18.986;2022-10-30T03:19:17;100511.94;;;13.84;93.64
70314;BME280;57725;47.526;18.986;2022-10-30T03:21:42;100506.66;;;13.84;93.39
70314;BME280;57725;47.526;18.986;2022-10-30T03:24:08;100509.31;;;13.84;93.53
70314;BME280;57725;47.526;18.986;2022-10-30T03:26:36;100504.97;;;13.83;93.56
70314;BME280;57725;47.526;18.986;2022-10-30T03:29:01;100501.47;;;13.82;93.49
70314;BME280;57725;47.526;18.986;2022-10-30T03:31:29;100504.03;;;13.84;93.66
70314;BME280;57725;47.526;18.986;2022-10-30T03:33:55;100507.59;;;13.83;93.75
70314;BME280;57725;47.526;18.986;2022-10-30T03:36:20;100506.75;;;13.82;93.49
70314;BME280;57725;47.526;18.986;2022-10-30T03:38:48;100504.97;;;13.83;93.62
70314;BME280;57725;47.526;18.986;2022-10-30T03:41:16;100494.44;;;13.83;93.75
70314;BME280;57725;47.526;18.986;2022-10-30T03:43:41;100491.81;;;13.83;93.50
70314;BME280;57725;47.526;18.986;2022-10-30T03:46:08;100491.88;;;13.81;93.57
70314;BME280;57725;47.526;18.986;2022-10-30T03:48:36;100492.75;;;13.82;93.41
70314;BME280;57725;47.526;18.986;2022-10-30T03:51:04;100484.00;;;13.81;93.59
70314;BME280;57725;47.526;18.986;2022-10-30T03:53:33;100492.75;;;13.82;93.55
70314;BME280;57725;47.526;18.986;2022-10-30T03:56:02;100490.13;;;13.82;93.49
70314;BME280;57725;47.526;18.986;2022-10-30T03:58:28;100494.44;;;13.83;93.65
70314;BME280;57725;47.526;18.986;2022-10-30T04:01:04;100493.59;;;13.82;93.70
70314;BME280;57725;47.526;18.986;2022-10-30T04:03:30;100486.63;;;13.81;93.43
70314;BME280;57725;47.526;18.986;2022-10-30T04:05:58;100495.38;;;13.82;93.60
70314;BME280;57725;47.526;18.986;2022-10-30T04:08:26;100491.88;;;13.81;93.60
70314;BME280;57725;47.526;18.986;2022-10-30T04:10:54;100488.41;;;13.81;93.77
70314;BME280;57725;47.526;18.986;2022-10-30T04:13:19;100490.13;;;13.82;93.56
70314;BME280;57725;47.526;18.986;2022-10-30T04:15:46;100485.78;;;13.81;93.61
70314;BME280;57725;47.526;18.986;2022-10-30T04:18:13;100479.66;;;13.80;93.73
70314;BME280;57725;47.526;18.986;2022-10-30T04:20:41;100480.53;;;13.81;93.85
70314;BME280;57725;47.526;18.986;2022-10-30T04:23:21;100481.38;;;13.81;93.63
70314;BME280;57725;47.526;18.986;2022-10-30T04:25:47;100480.53;;;13.81;93.70
70314;BME280;57725;47.526;18.986;2022-10-30T04:28:13;100486.69;;;13.80;93.55
70314;BME280;57725;47.526;18.986;2022-10-30T04:30:38;100484.06;;;13.80;93.75
70314;BME280;57725;47.526;18.986;2022-10-30T04:33:09;100491.03;;;13.81;93.65
70314;BME280;57725;47.526;18.986;2022-10-30T04:35:44;100484.94;;;13.80;93.76
70314;BME280;57725;47.526;18.986;2022-10-30T04:38:12;100481.44;;;13.80;93.62
70314;BME280;57725;47.526;18.986;2022-10-30T04:40:40;100476.19;;;13.80;93.60
70314;BME280;57725;47.526;18.986;2022-10-30T04:43:06;100483.22;;;13.79;93.63
70314;BME280;57725;47.526;18.986;2022-10-30T04:45:32;100485.84;;;13.79;93.63
70314;BME280;57725;47.526;18.986;2022-10-30T04:48:03;100486.69;;;13.80;93.42
70314;BME280;57725;47.526;18.986;2022-10-30T04:50:34;100486.69;;;13.80;93.54
70314;BME280;57725;47.526;18.986;2022-10-30T04:53:12;100485.00;;;13.78;93.64
70314;BME280;57725;47.526;18.986;2022-10-30T04:55:40;100486.69;;;13.80;93.67
70314;BME280;57725;47.526;18.986;2022-10-30T04:58:10;100489.31;;;13.80;93.69
70314;BME280;57725;47.526;18.986;2022-10-30T05:00:35;100494.59;;;13.80;93.52
70314;BME280;57725;47.526;18.986;2022-10-30T05:03:03;100485.84;;;13.79;93.67
70314;BME280;57725;47.526;18.986;2022-10-30T05:05:29;100487.63;;;13.78;93.55
70314;BME280;57725;47.526;18.986;2022-10-30T05:07:55;100493.72;;;13.79;93.55
70314;BME280;57725;47.526;18.986;2022-10-30T05:10:23;100495.50;;;13.78;93.43
70314;BME280;57725;47.526;18.986;2022-10-30T05:12:50;100489.41;;;13.78;93.78
70314;BME280;57725;47.526;18.986;2022-10-30T05:15:19;100492.88;;;13.78;93.56
70314;BME280;57725;47.526;18.986;2022-10-30T05:17:44;100496.41;;;13.77;93.66
70314;BME280;57725;47.526;18.986;2022-10-30T05:20:10;100503.38;;;13.78;93.58
70314;BME280;57725;47.526;18.986;2022-10-30T05:22:37;100500.75;;;13.78;93.56
70314;BME280;57725;47.526;18.986;2022-10-30T05:25:03;100497.28;;;13.78;93.58
70314;BME280;57725;47.526;18.986;2022-10-30T05:27:31;100502.53;;;13.78;93.57
70314;BME280;57725;47.526;18.986;2022-10-30T05:29:58;100502.53;;;13.78;93.50
70314;BME280;57725;47.526;18.986;2022-10-30T05:32:26;100510.41;;;13.78;93.58
70314;BME280;57725;47.526;18.986;2022-10-30T05:34:51;100509.56;;;13.77;93.54
70314;BME280;57725;47.526;18.986;2022-10-30T05:37:17;100520.06;;;13.77;93.62
70314;BME280;57725;47.526;18.986;2022-10-30T05:39:42;100512.19;;;13.77;93.69
70314;BME280;57725;47.526;18.986;2022-10-30T05:42:10;100510.41;;;13.78;93.57
70314;BME280;57725;47.526;18.986;2022-10-30T05:44:35;100521.84;;;13.77;93.70
70314;BME280;57725;47.526;18.986;2022-10-30T05:47:00;100513.03;;;13.78;93.88
70314;BME280;57725;47.526;18.986;2022-10-30T05:49:26;100520.06;;;13.77;93.69
70314;BME280;57725;47.526;18.986;2022-10-30T05:51:51;100519.22;;;13.77;93.74
70314;BME280;57725;47.526;18.986;2022-10-30T05:54:19;100520.06;;;13.77;93.67
70314;BME280;57725;47.526;18.986;2022-10-30T05:56:44;100516.66;;;13.75;93.60
70314;BME280;57725;47.526;18.986;2022-10-30T05:59:09;100518.38;;;13.76;93.52
70314;BME280;57725;47.526;18.986;2022-10-30T06:01:35;100517.50;;;13.76;93.82
70314;BME280;57725;47.526;18.986;2022-10-30T06:04:00;100518.38;;;13.76;93.66
70314;BME280;57725;47.526;18.986;2022-10-30T06:06:28;100519.28;;;13.75;93.63
70314;BME280;57725;47.526;18.986;2022-10-30T06:08:55;100514.88;;;13.76;93.78
70314;BME280;57725;47.526;18.986;2022-10-30T06:11:26;100515.81;;;13.75;93.59
70314;BME280;57725;47.526;18.986;2022-10-30T06:13:51;100514.03;;;13.75;93.45
70314;BME280;57725;47.526;18.986;2022-10-30T06:16:18;100516.66;;;13.75;93.51
70314;BME280;57725;47.526;18.986;2022-10-30T06:18:44;100515.81;;;13.75;93.76
70314;BME280;57725;47.526;18.986;2022-10-30T06:21:09;100514.94;;;13.74;93.50
70314;BME280;57725;47.526;18.986;2022-10-30T06:23:34;100512.31;;;13.74;93.61
70314;BME280;57725;47.526;18.986;2022-10-30T06:26:00;100513.09;;;13.76;93.50
70314;BME280;57725;47.526;18.986;2022-10-30T06:28:25;100514.03;;;13.75;93.60
70314;BME280;57725;47.526;18.986;2022-10-30T06:30:52;100512.31;;;13.74;93.79
70314;BME280;57725;47.526;18.986;2022-10-30T06:33:18;100519.28;;;13.75;93.52
70314;BME280;57725;47.526;18.986;2022-10-30T06:35:43;100516.66;;;13.75;93.44
70314;BME280;57725;47.526;18.986;2022-10-30T06:38:11;100535.06;;;13.75;93.52
70314;BME280;57725;47.526;18.986;2022-10-30T06:40:36;100535.13;;;13.74;93.76
70314;BME280;57725;47.526;18.986;2022-10-30T06:43:01;100541.22;;;13.74;93.55
70314;BME280;57725;47.526;18.986;2022-10-30T06:45:27;100542.09;;;13.75;93.53
70314;BME280;57725;47.526;18.986;2022-10-30T06:47:52;100543.78;;;13.76;93.69
70314;BME280;57725;47.526;18.986;2022-10-30T06:50:20;100545.56;;;13.75;93.76
70314;BME280;57725;47.526;18.986;2022-10-30T06:52:46;100536.81;;;13.75;93.63
70314;BME280;57725;47.526;18.986;2022-10-30T06:55:13;100542.09;;;13.75;93.58
70314;BME280;57725;47.526;18.986;2022-10-30T06:57:38;100537.75;;;13.74;93.52
70314;BME280;57725;47.526;18.986;2022-10-30T07:00:05;100546.47;;;13.74;93.58
70314;BME280;57725;47.526;18.986;2022-10-30T07:02:33;100542.94;;;13.75;93.77
70314;BME280;57725;47.526;18.986;2022-10-30T07:04:59;100536.88;;;13.73;93.56
70314;BME280;57725;47.526;18.986;2022-10-30T07:07:24;100532.50;;;13.74;93.72
70314;BME280;57725;47.526;18.986;2022-10-30T07:09:49;100536.88;;;13.73;93.56
70314;BME280;57725;47.526;18.986;2022-10-30T07:12:15;100541.22;;;13.74;93.58
70314;BME280;57725;47.526;18.986;2022-10-30T07:14:40;100534.25;;;13.73;93.61
70314;BME280;57725;47.526;18.986;2022-10-30T07:17:06;100532.59;;;13.72;93.78
70314;BME280;57725;47.526;18.986;2022-10-30T07:19:31;100541.28;;;13.73;93.66
70314;BME280;57725;47.526;18.986;2022-10-30T07:21:56;100540.47;;;13.72;93.43
70314;BME280;57725;47.526;18.986;2022-10-30T07:24:22;100542.16;;;13.73;93.67
70314;BME280;57725;47.526;18.986;2022-10-30T07:26:47;100542.16;;;13.73;93.70
70314;BME280;57725;47.526;18.986;2022-10-30T07:29:15;100539.53;;;13.73;93.73
70314;BME280;57725;47.526;18.986;2022-10-30T07:31:40;100542.16;;;13.73;93.72
70314;BME280;57725;47.526;18.986;2022-10-30T07:34:09;100545.63;;;13.74;93.55
70314;BME280;57725;47.526;18.986;2022-10-30T07:36:34;100548.25;;;13.74;93.62
70314;BME280;57725;47.526;18.986;2022-10-30T07:39:02;100550.88;;;13.74;93.70
70314;BME280;57725;47.526;18.986;2022-10-30T07:41:27;100557.00;;;13.74;93.71
70314;BME280;57725;47.526;18.986;2022-10-30T07:43:55;100556.13;;;13.74;93.48
70314;BME280;57725;47.526;18.986;2022-10-30T07:46:20;100550.88;;;13.74;93.55
70314;BME280;57725;47.526;18.986;2022-10-30T07:48:45;100558.88;;;13.72;94.05
70314;BME280;57725;47.526;18.986;2022-10-30T07:51:11;100556.13;;;13.74;93.53
70314;BME280;57725;47.526;18.986;2022-10-30T07:53:41;100555.28;;;13.73;93.68
70314;BME280;57725;47.526;18.986;2022-10-30T07:56:06;100558.88;;;13.72;93.70
70314;BME280;57725;47.526;18.986;2022-10-30T07:58:32;100546.66;;;13.71;93.63
70314;BME280;57725;47.526;18.986;2022-10-30T08:00:57;100560.53;;;13.73;93.63
70314;BME280;57725;47.526;18.986;2022-10-30T08:03:23;100550.13;;;13.72;93.65
70314;BME280;57725;47.526;18.986;2022-10-30T08:05:50;100560.53;;;13.73;93.72
70314;BME280;57725;47.526;18.986;2022-10-30T08:08:16;100555.28;;;13.73;93.77
70314;BME280;57725;47.526;18.986;2022-10-30T08:10:41;100554.44;;;13.73;93.38
70314;BME280;57725;47.526;18.986;2022-10-30T08:13:09;100564.03;;;13.74;93.82
70314;BME280;57725;47.526;18.986;2022-10-30T08:15:34;100563.16;;;13.73;93.52
70314;BME280;57725;47.526;18.986;2022-10-30T08:18:03;100561.50;;;13.72;93.47
70314;BME280;57725;47.526;18.986;2022-10-30T08:20:30;100561.50;;;13.72;93.72
70314;BME280;57725;47.526;18.986;2022-10-30T08:22:58;100552.75;;;13.72;93.76
70314;BME280;57725;47.526;18.986;2022-10-30T08:25:27;100555.28;;;13.73;93.64
70314;BME280;57725;47.526;18.986;2022-10-30T08:28:04;100551.91;;;13.71;93.81
70314;BME280;57725;47.526;18.986;2022-10-30T08:30:31;100557.06;;;13.73;93.70
70314;BME280;57725;47.526;18.986;2022-10-30T08:33:03;100554.53;;;13.71;93.67
70314;BME280;57725;47.526;18.986;2022-10-30T08:35:29;100564.13;;;13.72;93.73
70314;BME280;57725;47.526;18.986;2022-10-30T08:37:58;100560.63;;;13.72;93.66
70314;BME280;57725;47.526;18.986;2022-10-30T08:40:24;100568.41;;;13.73;93.64
70314;BME280;57725;47.526;18.986;2022-10-30T08:42:51;100565.78;;;13.73;93.63
70314;BME280;57725;47.526;18.986;2022-10-30T08:45:17;100557.91;;;13.73;93.80
70314;BME280;57725;47.526;18.986;2022-10-30T08:47:45;100557.91;;;13.73;93.67
70314;BME280;57725;47.526;18.986;2022-10-30T08:50:10;100552.75;;;13.72;93.76
70314;BME280;57725;47.526;18.986;2022-10-30T08:52:35;100548.34;;;13.72;93.60
70314;BME280;57725;47.526;18.986;2022-10-30T08:55:01;100543.09;;;13.72;93.62
70314;BME280;57725;47.526;18.986;2022-10-30T08:57:26;100543.91;;;13.73;93.76
70314;BME280;57725;47.526;18.986;2022-10-30T08:59:52;100547.41;;;13.73;93.57
70314;BME280;57725;47.526;18.986;2022-10-30T09:02:20;100550.97;;;13.72;93.56
70314;BME280;57725;47.526;18.986;2022-10-30T09:04:45;100550.13;;;13.72;93.64
70314;BME280;57725;47.526;18.986;2022-10-30T09:07:10;100552.66;;;13.73;93.77
70314;BME280;57725;47.526;18.986;2022-10-30T09:09:36;100563.16;;;13.73;93.69
70314;BME280;57725;47.526;18.986;2022-10-30T09:12:01;100555.28;;;13.73;93.77
70314;BME280;57725;47.526;18.986;2022-10-30T09:14:27;100550.13;;;13.72;93.64
70314;BME280;57725;47.526;18.986;2022-10-30T09:16:55;100540.47;;;13.72;93.64
70314;BME280;57725;47.526;18.986;2022-10-30T09:19:23;100543.84;;;13.74;93.81
70314;BME280;57725;47.526;18.986;2022-10-30T09:21:51;100545.63;;;13.74;93.51
70314;BME280;57725;47.526;18.986;2022-10-30T09:24:16;100553.50;;;13.74;93.65
70314;BME280;57725;47.526;18.986;2022-10-30T09:26:41;100557.91;;;13.73;93.67
70314;BME280;57725;47.526;18.986;2022-10-30T09:29:09;100554.38;;;13.74;93.72
70314;BME280;57725;47.526;18.986;2022-10-30T09:31:35;100552.66;;;13.73;93.69
70314;BME280;57725;47.526;18.986;2022-10-30T09:34:00;100548.25;;;13.74;93.80
70314;BME280;57725;47.526;18.986;2022-10-30T09:36:28;100555.22;;;13.75;93.73
70314;BME280;57725;47.526;18.986;2022-10-30T09:38:53;100553.50;;;13.74;93.82
70314;BME280;57725;47.526;18.986;2022-10-30T09:41:38;100549.13;;;13.74;93.76
70314;BME280;57725;47.526;18.986;2022-10-30T09:52:41;100534.19;;;13.75;93.70
70314;BME280;57725;47.526;18.986;2022-10-30T09:55:33;100535.06;;;13.75;93.74
70314;BME280;57725;47.526;18.986;2022-10-30T09:58:42;100534.19;;;13.75;93.70
70314;BME280;57725;47.526;18.986;2022-10-30T10:03:59;100528.03;;;13.76;93.80
70314;BME280;57725;47.526;18.986;2022-10-30T10:06:28;100526.25;;;13.76;93.74
70314;BME280;57725;47.526;18.986;2022-10-30T10:09:01;100525.41;;;13.76;93.86
70314;BME280;57725;47.526;18.986;2022-10-30T10:11:39;100526.25;;;13.76;93.83
70314;BME280;57725;47.526;18.986;2022-10-30T10:14:20;100526.25;;;13.76;93.86
70314;BME280;57725;47.526;18.986;2022-10-30T10:16:55;100525.31;;;13.77;93.84
70314;BME280;57725;47.526;18.986;2022-10-30T10:24:22;100520.06;;;13.77;93.76
70314;BME280;57725;47.526;18.986;2022-10-30T10:27:08;100525.31;;;13.77;94.06
70314;BME280;57725;47.526;18.986;2022-10-30T10:32:31;100517.38;;;13.79;93.82
70314;BME280;57725;47.526;18.986;2022-10-30T10:40:32;100510.34;;;13.80;93.94
70314;BME280;57725;47.526;18.986;2022-10-30T10:43:21;100509.50;;;13.79;94.07
70314;BME280;57725;47.526;18.986;2022-10-30T10:48:37;100510.34;;;13.80;93.89
70314;BME280;57725;47.526;18.986;2022-10-30T10:51:10;100509.44;;;13.81;93.82
70314;BME280;57725;47.526;18.986;2022-10-30T10:53:56;100505.88;;;13.82;94.09
70314;BME280;57725;47.526;18.986;2022-10-30T10:56:31;100498.00;;;13.82;93.96
70314;BME280;57725;47.526;18.986;2022-10-30T10:59:00;100496.22;;;13.82;93.92
70314;BME280;57725;47.526;18.986;2022-10-30T11:01:53;100487.41;;;13.83;93.81
70314;BME280;57725;47.526;18.986;2022-10-30T11:06:48;100485.66;;;13.84;93.86
70314;BME280;57725;47.526;18.986;2022-10-30T11:09:19;100483.94;;;13.83;94.00
70314;BME280;57725;47.526;18.986;2022-10-30T11:11:55;100480.38;;;13.84;93.99
70314;BME280;57725;47.526;18.986;2022-10-30T11:14:29;100475.13;;;13.84;94.05
70314;BME280;57725;47.526;18.986;2022-10-30T11:19:22;100479.44;;;13.85;94.04
70314;BME280;57725;47.526;18.986;2022-10-30T11:21:51;100474.19;;;13.85;93.80
70314;BME280;57725;47.526;18.986;2022-10-30T11:24:34;100469.78;;;13.85;93.83
70314;BME280;57725;47.526;18.986;2022-10-30T11:30:04;100482.00;;;13.86;93.93
70314;BME280;57725;47.526;18.986;2022-10-30T11:32:33;100480.22;;;13.87;93.86
70314;BME280;57725;47.526;18.986;2022-10-30T11:35:19;100476.66;;;13.88;93.87
70314;BME280;57725;47.526;18.986;2022-10-30T11:38:11;100477.59;;;13.87;93.76
70314;BME280;57725;47.526;18.986;2022-10-30T11:40:35;100469.63;;;13.88;94.04
70314;BME280;57725;47.526;18.986;2022-10-30T11:43:04;100469.63;;;13.88;93.93
70314;BME280;57725;47.526;18.986;2022-10-30T11:45:37;100476.59;;;13.89;94.08
70314;BME280;57725;47.526;18.986;2022-10-30T11:48:10;100467.00;;;13.88;94.00
70314;BME280;57725;47.526;18.986;2022-10-30T11:50:45;100459.97;;;13.89;93.56
70314;BME280;57725;47.526;18.986;2022-10-30T11:53:20;100459.00;;;13.91;93.91
70314;BME280;57725;47.526;18.986;2022-10-30T11:55:48;100456.44;;;13.90;93.70
70314;BME280;57725;47.526;18.986;2022-10-30T11:58:36;100454.59;;;13.92;93.77
70314;BME280;57725;47.526;18.986;2022-10-30T12:01:07;100454.59;;;13.92;93.86
70314;BME280;57725;47.526;18.986;2022-10-30T12:03:40;100455.44;;;13.92;93.91
70314;BME280;57725;47.526;18.986;2022-10-30T12:09:10;100450.19;;;13.92;94.00
70314;BME280;57725;47.526;18.986;2022-10-30T12:11:37;100444.06;;;13.92;93.85
70314;BME280;57725;47.526;18.986;2022-10-30T12:14:04;100444.84;;;13.94;93.88
70314;BME280;57725;47.526;18.986;2022-10-30T12:16:31;100439.59;;;13.94;93.69
70314;BME280;57725;47.526;18.986;2022-10-30T12:19:07;100444.84;;;13.94;93.73
70314;BME280;57725;47.526;18.986;2022-10-30T12:21:50;100447.50;;;13.94;93.90
70314;BME280;57725;47.526;18.986;2022-10-30T12:24:33;100447.50;;;13.94;93.79
70314;BME280;57725;47.526;18.986;2022-10-30T12:27:04;100446.56;;;13.95;93.79
70314;BME280;57725;47.526;18.986;2022-10-30T12:29:38;100442.16;;;13.95;93.77
70314;BME280;57725;47.526;18.986;2022-10-30T12:32:15;100433.44;;;13.95;94.02
70314;BME280;57725;47.526;18.986;2022-10-30T12:34:59;100432.50;;;13.96;93.75
70314;BME280;57725;47.526;18.986;2022-10-30T12:37:39;100435.94;;;13.96;93.77
70314;BME280;57725;47.526;18.986;2022-10-30T12:42:44;100449.03;;;13.98;93.91
70314;BME280;57725;47.526;18.986;2022-10-30T12:45:15;100453.38;;;13.99;93.77
70314;BME280;57725;47.526;18.986;2022-10-30T12:47:50;100457.75;;;13.98;93.92
70314;BME280;57725;47.526;18.986;2022-10-30T12:51:01;100456.84;;;13.99;93.96
70314;BME280;57725;47.526;18.986;2022-10-30T12:55:45;100449.81;;;14.00;93.63
70314;BME280;57725;47.526;18.986;2022-10-30T13:01:32;100443.63;;;14.01;93.62
70314;BME280;57725;47.526;18.986;2022-10-30T13:06:59;100430.50;;;14.01;93.71
70314;BME280;57725;47.526;18.986;2022-10-30T13:12:05;100431.28;;;14.03;93.78
70314;BME280;57725;47.526;18.986;2022-10-30T13:17:14;100439.16;;;14.03;93.65
70314;BME280;57725;47.526;18.986;2022-10-30T13:19:41;100440.88;;;14.04;93.97
70314;BME280;57725;47.526;18.986;2022-10-30T13:22:15;100436.47;;;14.04;93.71
70314;BME280;57725;47.526;18.986;2022-10-30T13:24:55;100446.97;;;14.04;93.77
70314;BME280;57725;47.526;18.986;2022-10-30T13:27:43;100442.56;;;14.05;93.80
70314;BME280;57725;47.526;18.986;2022-10-30T13:30:14;100444.34;;;14.04;93.97
70314;BME280;57725;47.526;18.986;2022-10-30T13:41:07;100455.66;;;14.06;93.74
70314;BME280;57725;47.526;18.986;2022-10-30T13:44:24;100457.34;;;14.07;93.68
70314;BME280;57725;47.526;18.986;2022-10-30T13:47:14;100448.63;;;14.07;93.85
70314;BME280;57725;47.526;18.986;2022-10-30T13:52:17;100437.13;;;14.08;93.69
70314;BME280;57725;47.526;18.986;2022-10-30T13:57:38;100431.06;;;14.07;93.87
70314;BME280;57725;47.526;18.986;2022-10-30T14:00:20;100435.28;;;14.10;93.65
70314;BME280;57725;47.526;18.986;2022-10-30T14:03:11;100432.75;;;14.08;93.84
70314;BME280;57725;47.526;18.986;2022-10-30T14:08:31;100435.28;;;14.10;93.70
70314;BME280;57725;47.526;18.986;2022-10-30T14:11:00;100437.94;;;14.10;93.71
70314;BME280;57725;47.526;18.986;2022-10-30T14:16:34;100451.91;;;14.10;93.57
70314;BME280;57725;47.526;18.986;2022-10-30T14:19:07;100453.69;;;14.10;93.67
70314;BME280;57725;47.526;18.986;2022-10-30T14:26:52;100452.78;;;14.11;93.65
70314;BME280;57725;47.526;18.986;2022-10-30T14:37:17;100460.59;;;14.12;93.68
70314;BME280;57725;47.526;18.986;2022-10-30T14:39:46;100444.88;;;14.11;93.81
70314;BME280;57725;47.526;18.986;2022-10-30T14:42:27;100444.81;;;14.12;93.68
70314;BME280;57725;47.526;18.986;2022-10-30T14:58:15;100423.72;;;14.14;93.63